^^

METAR Μετεωρολογικών Σταθμών

Βόρεια Ελλάδα


 Τι είναι το METAR ??? 

Πρώτος είναι ο πλησιέστερος Μετεωρολογικός Σταθμός (Κάτω Πυλαία 0χλμ)
και τέλος ο πιο απομακρυσμένος (Ορεστιάδα 316χλμ).
Επίσης μερικές αναφορές, παρουσιάζουν λιγότερα στοιχεία γιατί
οι αρχικές είναι ελλιπείς ή έχουν λάθος μορφοποίηση.
Πηγαίνετε στις Αναφορές METAR από Αεροδρόμια )  
Επιλέξτε Τμήμα:  Βόρεια Ελλάδα  -  Κεντρική, Δυτική & Νότια Ελλάδα  -  Νησιά Αγαίου & Κρήτη
Αλφαβητική Λίστα Γρήγορης Μετάβασης στούς 72 Μετεωρολογικούς Σταθμούς
Σύμφωνα με την διοικητική διαίρεση κατά το «Πρόγραμμα Καλλικράτης»
Ανατολική Μακεδονία και Θράκη  (Δράμα: Δράμα  Νευροκόπι  Φαλακρό-Χιον/κό Κέντρο  Φαλακρό-Κορυφή Καρτάλκα)
(Έβρος: Αλεξανδρούπολη  Διδυμότειχο  Μεταξάδες  Ορεστιάδα  Σαμοθράκη) (Καβάλα: Βουνοχώρι  Καβάλα  Παλαιοχώρι) (Ξάνθη: Ξάνθη)
(Ροδόπη: Κομοτηνή)
Δυτική Μακεδονία  (Γρεβενά: Βασιλίτσα  Γρεβενά  Σαμαρίνα) (Καστοριά: Γράμος  Καστοριά  Κλεισούρα) (Κοζάνη: Νότιο Πεδίο-ΔΕΗ  Πτολεμαΐδα) (Φλώρινα: Αμύνταιο-ΔΕΗ  Βαρικό  Φλώρινα)
Θεσσαλία  (Καρδίτσα: Καρδίτσα  Καστανιά) (Λάρισσα: Λάρισσα) (Μαγνησία: Βόλος  Βόλος-Κέντρο  Ζαγορά  Πορταριά  Πτελεός  Χάνια)
(Σποράδες: Αλόννησος  Σκιάθος  Σκόπελος) (Τρίκαλα: Καλαμπάκα  Περτούλι)
Κεντρική Μακεδονία  (Ημαθία: Βέροια  Νάουσα  3-5 Πηγάδια-Χιον/κό Κέντρο  Σέλι-Χιον/κό Κέντρο) (Θεσσαλονίκη: Ασπροβάλτα  Επταπύργιο  Ιστορικό Κέντρο  Ιωνία  Καλαμαριά  Καρδία  Κάτω Πυλαία  Κάτω Τούμπα  Λαγκαδάς  Νέα Κρήνη  Πυλαία  Τρίλοφος  Φίλυρο  Χορτιάτης  Ωραιόκαστρο) (Κιλκίς: Κιλκίς) (Πέλλα: Αριδαία  Καϊμάκτσαλαν-Χιον/κό Κέντρο) (Πιερία: Δίον  Μακρύγιαλος) (Σέρρες: Κερκίνη  Λαϊλιάς-Καταφύγιο  Πρώτη  Σέρρες) (Χαλκιδική: Κασσάνδρεια  Νέα Μουδανιά  Πολύγυρος  Στρατώνι) (Χαλκιδική-Αγιον Όρος: Βατοπέδι-Μονή)
(Ι.Μ.Σ.)Ιδιωτικός Μετεωρολογικός Σταθμός - (Ε.Α.Α.)Εθνικό Αστεροσκοπείο Αθηνών - (S.R.F.)Snow Report Forum
(Ι.Μ.Σ.)  Κάτω Πυλαία  (Σταθμός:1036)
Πυλαία Χορτιάτης - Θεσσαλονίκη - Κ. Μακεδονία
Γ.Πλάτ: 40.57 - Γ.Μήκ: 22.97 - Υψόμ: 21μ

Vouhead Weather
Ενημερώθηκε: 26/06/2017 20:04
Μερικώς νεφελώδης
Μερικώς νεφελώδης
 Άνεμος από ΝΝΔ
Άνεμος: ΝΝΔ 6 χΑω
Θερμοκρασία: 30°C
Δείκτης Δυσφορίας: 31°C
Σημ. Δρόσου: 19°C
Υγρασία: 52%
Βαρόμετρο: 1010 hPa
Σύννεφα: Μερικώς νεφελώδης
Ορατότητα: 10 χλμ
Ανάλυση νέφωσης: Μερικώς νεφελώδης 1372μ
2017/06/26 17:04 1036 261704Z 20203KT 9999 SCT045 30/19 Q1010
(Ι.Μ.Σ.)  Νέα Κρήνη  (Σταθμός:1272)
Καλαμαριά - Θεσσαλονίκη - Κ. Μακεδονία
Γ.Πλάτ: 40.57 - Γ.Μήκ: 22.96 - Υψόμ: 17μ
Απόσταση από το Vouhead Weather: (ΔΒΔ) 1,5χλμ
Ενημερώθηκε: 26/06/2017 20:04
Διάσπαρτα νέφη
Διάσπαρτα νέφη
 Άνεμος από ΝΝΔ
Άνεμος: ΝΝΔ 6 χΑω
Θερμοκρασία: 30°C
Δείκτης Δυσφορίας: 31°C
Σημ. Δρόσου: 19°C
Υγρασία: 52%
Βαρόμετρο: 1010 hPa
Σύννεφα: Διάσπαρτα νέφη
Ορατότητα: 10 χλμ
Ανάλυση νέφωσης: Διάσπαρτα νέφη 1250μ
2017/06/26 17:04 1272 261704Z 20203KT 9999 FEW041 30/19 Q1010
 
(Ι.Μ.Σ.)  Καλαμαριά  (Σταθμός:1034)
Καλαμαριά - Θεσσαλονίκη - Κ. Μακεδονία
Γ.Πλάτ: 40.58 - Γ.Μήκ: 22.96 - Υψόμ: 60μ
Απόσταση από το Vouhead Weather: (ΒΒΔ) 2χλμ
Ενημερώθηκε: 26/06/2017 20:04
Μερικώς νεφελώδης
Μερικώς νεφελώδης
 Άνεμος από ΝΝΔ
Άνεμος: ΝΝΔ 4 χΑω
Θερμοκρασία: 31°C
Δείκτης Δυσφορίας: 31°C
Σημ. Δρόσου: 16°C
Υγρασία: 40%
Βαρόμετρο: 1009 hPa
Σύννεφα: Μερικώς νεφελώδης
Ορατότητα: 10 χλμ
Ανάλυση νέφωσης: Μερικώς νεφελώδης 1737μ
2017/06/26 17:04 1034 261704Z 20202KT 9999 SCT057 31/16 Q1009
(Ι.Μ.Σ.)  Πυλαία  (Σταθμός:1124)
Πυλαία Χορτιάτης - Θεσσαλονίκη - Κ. Μακεδονία
Γ.Πλάτ: 40.60 - Γ.Μήκ: 22.98 - Υψόμ: 145μ
Απόσταση από το Vouhead Weather: (ΒΒΑ) 4χλμ
Ενημερώθηκε: 15/06/2017 19:04
ΜΗ ΠΡΟΣΦΑΤΟ METAR
Νεφοσκεπής
Νεφοσκεπής
 Άνεμος από Β
Άνεμος: Β 93 χΑω
Θερμοκρασία: 2°C
Ψυχρότητα Ανέμου: -7°C
Σημ. Δρόσου: -7°C
Υγρασία: 52%
Βαρόμετρο: 985 hPa
Σύννεφα: Νεφοσκεπής
Ορατότητα: 10 χλμ
Ανάλυση νέφωσης: Νεφοσκεπής 1067μ
2017/06/15 16:04 1124 151604Z 36050KT 9999 OVC035 02/M07 Q0985
 
(Ι.Μ.Σ.)  Κάτω Τούμπα  (Σταθμός:1242)
Θεσσαλονίκη - Θεσσαλονίκη - Κ. Μακεδονία
Γ.Πλάτ: 40.61 - Γ.Μήκ: 22.97 - Υψόμ: 60μ
Απόσταση από το Vouhead Weather: (Β) 5χλμ
Ενημερώθηκε: 01/09/2015 00:05
ΜΗ ΠΡΟΣΦΑΤΟ METAR
Αίθριος
Αίθριος
 Άνεμος από ΑΒΑ
Άνεμος: ΑΒΑ 4 χΑω
Θερμοκρασία: 32°C
Σημ. Δρόσου: 16°C
Υγρασία: 38%
Βαρόμετρο: 1016 hPa
Σύννεφα: Αίθριος
Ορατότητα: 10 χλμ
2015/08/31 21:05 1242 312105Z 06702KT 9999 SKC 32/16 Q1016
(Ι.Μ.Σ.)  Ιστορικό Κέντρο  (Σταθμός:1031)
Θεσσαλονίκη - Θεσσαλονίκη - Κ. Μακεδονία
Γ.Πλάτ: 40.63 - Γ.Μήκ: 22.95 - Υψόμ: 34μ
Απόσταση από το Vouhead Weather: (ΒΒΔ) 7χλμ
Ενημερώθηκε: 26/06/2017 20:04
Μερικώς νεφελώδης
Μερικώς νεφελώδης
 Άνεμος από ΝΝΔ
Άνεμος: ΝΝΔ 6 χΑω
Θερμοκρασία: 29°C
Δείκτης Δυσφορίας: 29°C
Σημ. Δρόσου: 16°C
Υγρασία: 45%
Βαρόμετρο: 1010 hPa
Σύννεφα: Μερικώς νεφελώδης
Ορατότητα: 10 χλμ
Ανάλυση νέφωσης: Μερικώς νεφελώδης 1585μ
2017/06/26 17:04 1031 261704Z 20203KT 9999 SCT052 29/16 Q1010
 
(Ι.Μ.Σ.)  Επταπύργιο  (Σταθμός:1032)
Νεάπολη Συκιές - Θεσσαλονίκη - Κ. Μακεδονία
Γ.Πλάτ: 40.64 - Γ.Μήκ: 22.96 - Υψόμ: 200μ
Απόσταση από το Vouhead Weather: (ΒΒΔ) 8χλμ
Ενημερώθηκε: 23/06/2017 02:04
ΜΗ ΠΡΟΣΦΑΤΟ METAR
Αίθριος
Αίθριος
 Άνεμος από ΝΑ
Άνεμος: ΝΑ 2 χΑω
Θερμοκρασία: 24°C
Σημ. Δρόσου: 15°C
Υγρασία: 57%
Βαρόμετρο: 1018 hPa
Σύννεφα: Αίθριος
Ορατότητα: 10 χλμ
2017/06/22 23:04 1032 222304Z 13501KT 9999 SKC 24/15 Q1018
(Ι.Μ.Σ.)  Καρδία  (Σταθμός:1321)
Θέρμη - Θεσσαλονίκη - Κ. Μακεδονία
Γ.Πλάτ: 40.47 - Γ.Μήκ: 22.99 - Υψόμ: 180μ
Απόσταση από το Vouhead Weather: (ΝΝΑ) 11χλμ
Ενημερώθηκε: 26/06/2017 20:04
Αίθριος
Αίθριος
 Άνεμος από ΔΝΔ
Άνεμος: ΔΝΔ 7 χΑω
Θερμοκρασία: 29°C
Δείκτης Δυσφορίας: 29°C
Σημ. Δρόσου: 17°C
Υγρασία: 48%
Βαρόμετρο: 1009 hPa
Σύννεφα: Αίθριος
Ορατότητα: 10 χλμ
2017/06/26 17:04 1321 261704Z 24704KT 9999 SKC 29/17 Q1009
 
(Ι.Μ.Σ.)  Τρίλοφος  (Σταθμός:1315)
Θέρμη - Θεσσαλονίκη - Κ. Μακεδονία
Γ.Πλάτ: 40.46 - Γ.Μήκ: 22.97 - Υψόμ: 185μ
Απόσταση από το Vouhead Weather: (Ν) 11χλμ
Ενημερώθηκε: 08/02/2016 23:20
ΜΗ ΠΡΟΣΦΑΤΟ METAR
Μερικώς νεφελώδης
Μερικώς νεφελώδης
 Άνεμος από Α
Άνεμος: Α 7 χΑω
Θερμοκρασία: 10°C
Ψυχρότητα Ανέμου: 9°C
Σημ. Δρόσου: 6°C
Υγρασία: 76%
Βαρόμετρο: 1026 hPa
Σύννεφα: Μερικώς νεφελώδης
Ορατότητα: 9 χλμ
Ανάλυση νέφωσης: Μερικώς νεφελώδης 518μ
2016/02/08 21:20 1315 082120Z 09004KT 9000 SCT017 10/06 Q1026
(S.R.F.)  Χορτιάτης  (Σταθμός:1096)
Πυλαία Χορτιάτης - Θεσσαλονίκη - Κ. Μακεδονία
Γ.Πλάτ: 40.62 - Γ.Μήκ: 23.07 - Υψόμ: 570μ
Απόσταση από το Vouhead Weather: (ΑΒΑ) 12χλμ
Ενημερώθηκε: 04/01/2017 22:49
ΜΗ ΠΡΟΣΦΑΤΟ METAR
Διάσπαρτα νέφη
Διάσπαρτα νέφη
 Άνεμος από calm
Άνεμος: Απνοια
Θερμοκρασία: 5°C
Σημ. Δρόσου: 4°C
Υγρασία: 93%
Βαρόμετρο: 1010 hPa
Σύννεφα: Διάσπαρτα νέφη
Ορατότητα: 6 χλμ
Ανάλυση νέφωσης: Διάσπαρτα νέφη 1219μ
2017/01/04 20:49 1096 042049Z 00000KT 6000 FEW040 05/04 Q1010
 
(Ι.Μ.Σ.)  Ιωνία  (Σταθμός:1033)
Δέλτα - Θεσσαλονίκη - Κ. Μακεδονία
Γ.Πλάτ: 40.66 - Γ.Μήκ: 22.88 - Υψόμ: 32μ
Απόσταση από το Vouhead Weather: (ΒΒΔ) 13χλμ
Ενημερώθηκε: 26/06/2017 20:04
Μερικώς νεφελώδης
Μερικώς νεφελώδης
 Άνεμος από ΝΝΔ
Άνεμος: ΝΝΔ 4 χΑω
Θερμοκρασία: 31°C
Δείκτης Δυσφορίας: 33°C
Σημ. Δρόσου: 19°C
Υγρασία: 49%
Βαρόμετρο: 1009 hPa
Σύννεφα: Μερικώς νεφελώδης
Ορατότητα: 10 χλμ
Ανάλυση νέφωσης: Μερικώς νεφελώδης 1402μ
2017/06/26 17:04 1033 261704Z 20202KT 9999 SCT046 31/19 Q1009
(Ι.Μ.Σ.)  Φίλυρο  (Σταθμός:1197)
Πυλαία Χορτιάτης - Θεσσαλονίκη - Κ. Μακεδονία
Γ.Πλάτ: 40.69 - Γ.Μήκ: 23.00 - Υψόμ: 400μ
Απόσταση από το Vouhead Weather: (ΒΒΑ) 14χλμ
Ενημερώθηκε: 12/04/2016 18:35
ΜΗ ΠΡΟΣΦΑΤΟ METAR
Αίθριος
Αίθριος
 Άνεμος από Β
Άνεμος: Β 9 χΑω
Θερμοκρασία: 28°C
Σημ. Δρόσου: 8°C
Υγρασία: 28%
Βαρόμετρο: 1011 hPa
Σύννεφα: Αίθριος
Ορατότητα: 10 χλμ
2016/04/12 15:35 1197 121535Z 36005KT 9999 SKC 28/08 Q1011
 
(Ι.Μ.Σ.)  Ωραιόκαστρο  (Σταθμός:1251)
Ωραιόκαστρο - Θεσσαλονίκη - Κ. Μακεδονία
Γ.Πλάτ: 40.72 - Γ.Μήκ: 22.92 - Υψόμ: 240μ
Απόσταση από το Vouhead Weather: (ΒΒΔ) 18χλμ
Ενημερώθηκε: 26/06/2017 20:04
Μερικώς νεφελώδης
Μερικώς νεφελώδης
 Άνεμος από Ν
Άνεμος: Ν 4 χΑω
Θερμοκρασία: 28°C
Δείκτης Δυσφορίας: 28°C
Σημ. Δρόσου: 16°C
Υγρασία: 48%
Βαρόμετρο: 1006 hPa
Σύννεφα: Μερικώς νεφελώδης
Ορατότητα: 10 χλμ
Ανάλυση νέφωσης: Μερικώς νεφελώδης 1341μ
2017/06/26 17:04 1251 261704Z 18002KT 9999 SCT044 28/16 Q1006
(Ε.Α.Α.)  LGA5 - Λαγκαδάς  (Σταθμός:1127)
Λαγκαδάς - Θεσσαλονίκη - Κ. Μακεδονία
Γ.Πλάτ: 40.75 - Γ.Μήκ: 23.07 - Υψόμ: 87μ
Απόσταση από το Vouhead Weather: (ΒΒΑ) 22χλμ
Ενημερώθηκε: 25/06/2017 12:49
ΜΗ ΠΡΟΣΦΑΤΟ METAR
Αίθριος
Αίθριος
 Άνεμος από ΑΝΑ
Άνεμος: ΑΝΑ 2 χΑω
Θερμοκρασία: 31°C
Δείκτης Δυσφορίας: 32°C
Σημ. Δρόσου: 18°C
Υγρασία: 46%
Βαρόμετρο: 1013 hPa
Σύννεφα: Αίθριος
Ορατότητα: 10 χλμ
2017/06/25 09:49 1127 250949Z 11201KT 9999 SKC 31/18 Q1013
 
(Ι.Μ.Σ.)  Μακρύγιαλος  (Σταθμός:1324)
Πύδνα Κολινδρός - Πιερία - Κ. Μακεδονία
Γ.Πλάτ: 40.42 - Γ.Μήκ: 22.61 - Υψόμ: 60μ
Απόσταση από το Vouhead Weather: (ΔΝΔ) 35χλμ
Ενημερώθηκε: 26/06/2017 20:04
Μερικώς νεφελώδης
Μερικώς νεφελώδης
 Άνεμος από ΝΔ
Άνεμος: ΝΔ 6 χΑω
Θερμοκρασία: 26°C
Σημ. Δρόσου: 21°C
Υγρασία: 74%
Βαρόμετρο: 1009 hPa
Σύννεφα: Μερικώς νεφελώδης
Ορατότητα: 8 χλμ
Ανάλυση νέφωσης: Μερικώς νεφελώδης 671μ
2017/06/26 17:04 1324 261704Z 22503KT 8000 SCT022 26/21 Q1009
(Ε.Α.Α.)  LG33 - Πολύγυρος  (Σταθμός:1045)
Πολύγυρος - Χαλκιδική - Κ. Μακεδονία
Γ.Πλάτ: 40.38 - Γ.Μήκ: 23.44 - Υψόμ: 580μ
Απόσταση από το Vouhead Weather: (ΑΝΑ) 44χλμ
Ενημερώθηκε: 26/06/2017 20:04
Μερικώς νεφελώδης
Μερικώς νεφελώδης
 Άνεμος από ΝΝΔ
Άνεμος: ΝΝΔ 4 χΑω
Θερμοκρασία: 26°C
Σημ. Δρόσου: 16°C
Υγρασία: 54%
Βαρόμετρο: 1008 hPa
Σύννεφα: Μερικώς νεφελώδης
Ορατότητα: 10 χλμ
Ανάλυση νέφωσης: Μερικώς νεφελώδης 1128μ
2017/06/26 17:04 1045 261704Z 20202KT 9999 SCT037 26/16 Q1008
 
(Ι.Μ.Σ.)  Νέα Μουδανιά  (Σταθμός:1393)
Νέα Προποντίδα - Χαλκιδική - Κ. Μακεδονία
Γ.Πλάτ: 40.24 - Γ.Μήκ: 23.28 - Υψόμ: 4μ
Απόσταση από το Vouhead Weather: (ΝΝΑ) 45χλμ
Ενημερώθηκε: 30/05/2017 06:04
ΜΗ ΠΡΟΣΦΑΤΟ METAR
Αίθριος
Αίθριος
 Άνεμος από ΝΝΑ
Άνεμος: ΝΝΑ 2 χΑω
Θερμοκρασία: 17°C
Σημ. Δρόσου: 12°C
Υγρασία: 73%
Βαρόμετρο: 1015 hPa
Σύννεφα: Αίθριος
Ορατότητα: 8 χλμ
2017/05/30 03:04 1393 300304Z 15701KT 8000 SKC 17/12 Q1015
(Ε.Α.Α.)  LG42 - Κιλκίς  (Σταθμός:1042)
Κιλκίς - Κιλκίς - Κ. Μακεδονία
Γ.Πλάτ: 41.00 - Γ.Μήκ: 22.87 - Υψόμ: 290μ
Απόσταση από το Vouhead Weather: (ΒΒΔ) 48χλμ
Ενημερώθηκε: 26/06/2017 20:04
Μερικώς νεφελώδης
Μερικώς νεφελώδης
 Άνεμος από Ν
Άνεμος: Ν 6 χΑω
Θερμοκρασία: 29°C
Δείκτης Δυσφορίας: 29°C
Σημ. Δρόσου: 17°C
Υγρασία: 48%
Βαρόμετρο: 1009 hPa
Σύννεφα: Μερικώς νεφελώδης
Ορατότητα: 10 χλμ
Ανάλυση νέφωσης: Μερικώς νεφελώδης 1433μ
2017/06/26 17:04 1042 261704Z 18003KT 9999 SCT047 29/17 Q1009
 
(Ε.Α.Α.)  LG55 - Δίον  (Σταθμός:1039)
Δίον Όλυμπος - Πιερία - Κ. Μακεδονία
Γ.Πλάτ: 40.19 - Γ.Μήκ: 22.43 - Υψόμ: 50μ
Απόσταση από το Vouhead Weather: (ΝΔ) 60χλμ
Ενημερώθηκε: 26/06/2017 20:04
Μερικώς νεφελώδης
Μερικώς νεφελώδης
 Άνεμος από Α
Άνεμος: Α 6 χΑω
Θερμοκρασία: 26°C
Σημ. Δρόσου: 21°C
Υγρασία: 74%
Βαρόμετρο: 1009 hPa
Σύννεφα: Μερικώς νεφελώδης
Ορατότητα: 8 χλμ
Ανάλυση νέφωσης: Μερικώς νεφελώδης 610μ
2017/06/26 17:04 1039 261704Z 09003KT 8000 SCT020 26/21 Q1009
(Ι.Μ.Σ.)  LGE5 - Βέροια  (Σταθμός:1187)
Βέροια - Ημαθία - Κ. Μακεδονία
Γ.Πλάτ: 40.52 - Γ.Μήκ: 22.21 - Υψόμ: 105μ
Απόσταση από το Vouhead Weather: (Δ) 65χλμ
Ενημερώθηκε: 26/06/2017 20:04
Νεφοσκεπής
Νεφοσκεπής
 Άνεμος από calm
Άνεμος: Απνοια
Θερμοκρασία: 29°C
Δείκτης Δυσφορίας: 31°C
Σημ. Δρόσου: 20°C
Υγρασία: 58%
Βαρόμετρο: 1007 hPa
Σύννεφα: Νεφοσκεπής
Ορατότητα: 9 χλμ
Ανάλυση νέφωσης: Νεφοσκεπής 1006μ
2017/06/26 17:04 1187 261704Z 00000KT 9000 OVC033 29/20 Q1007
 
(Ι.Μ.Σ.)  Ασπροβάλτα  (Σταθμός:1302)
Βόλβη - Θεσσαλονίκη - Κ. Μακεδονία
Γ.Πλάτ: 40.76 - Γ.Μήκ: 23.72 - Υψόμ: 6μ
Απόσταση από το Vouhead Weather: (ΑΒΑ) 66χλμ
Ενημερώθηκε: 26/06/2017 20:04
Καταιγίδα, Μερικώς νεφελώδης
Καταιγίδα, Μερικώς νεφελώδης
 Άνεμος από ΒΑ
Άνεμος: ΒΑ 9 χΑω
Θερμοκρασία: 29°C
Δείκτης Δυσφορίας: 29°C
Σημ. Δρόσου: 18°C
Υγρασία: 51%
Βαρόμετρο: 1009 hPa
Περίληψη: Καταιγίδα
Σύννεφα: Μερικώς νεφελώδης
Ορατότητα: 10 χλμ
Ανάλυση νέφωσης: Μερικώς νεφελώδης 1372μ
2017/06/26 17:04 1302 261704Z 04505KT 9999 TS SCT045 29/18 Q1009
(Ε.Α.Α.)  LGO9 - Κασσάνδρεια  (Σταθμός:1361)
Κασσάνδρα - Χαλκιδική - Κ. Μακεδονία
Γ.Πλάτ: 40.06 - Γ.Μήκ: 23.43 - Υψόμ: 29μ
Απόσταση από το Vouhead Weather: (ΝΝΑ) 68χλμ
Ενημερώθηκε: 26/06/2017 20:04
Διάσπαρτα νέφη
Διάσπαρτα νέφη
 Άνεμος από ΒΔ
Άνεμος: ΒΔ 7 χΑω
Θερμοκρασία: 29°C
Δείκτης Δυσφορίας: 31°C
Σημ. Δρόσου: 20°C
Υγρασία: 58%
Βαρόμετρο: 1009 hPa
Σύννεφα: Διάσπαρτα νέφη
Ορατότητα: 9 χλμ
Ανάλυση νέφωσης: Διάσπαρτα νέφη 1006μ
2017/06/26 17:04 1361 261704Z 31504KT 9000 FEW033 29/20 Q1009
 
(Ε.Α.Α.)  LGJ1 - Στρατώνι  (Σταθμός:1288)
Αριστοτέλης - Χαλκιδική - Κ. Μακεδονία
Γ.Πλάτ: 40.51 - Γ.Μήκ: 23.83 - Υψόμ: 5μ
Απόσταση από το Vouhead Weather: (Α) 72χλμ
Ενημερώθηκε: 15/09/2016 14:05
ΜΗ ΠΡΟΣΦΑΤΟ METAR
Αίθριος
Αίθριος
 Άνεμος από ΑΝΑ
Άνεμος: ΑΝΑ 7 χΑω
Θερμοκρασία: 28°C
Δείκτης Δυσφορίας: 28°C
Σημ. Δρόσου: 17°C
Υγρασία: 51%
Βαρόμετρο: 1016 hPa
Σύννεφα: Αίθριος
Ορατότητα: 10 χλμ
2016/09/15 11:05 1288 151105Z 11204KT 9999 SKC 28/17 Q1016
(Ε.Α.Α.)  LGD9 - Κερκίνη  (Σταθμός:1176)
Σιντίκη - Σέρρες - Κ. Μακεδονία
Γ.Πλάτ: 41.22 - Γ.Μήκ: 23.08 - Υψόμ: 115μ
Απόσταση από το Vouhead Weather: (ΒΒΑ) 73χλμ
Ενημερώθηκε: 26/06/2017 09:19
ΜΗ ΠΡΟΣΦΑΤΟ METAR
Αίθριος
Αίθριος
 Άνεμος από calm
Άνεμος: Απνοια
Θερμοκρασία: 25°C
Σημ. Δρόσου: 19°C
Υγρασία: 69%
Βαρόμετρο: 1012 hPa
Σύννεφα: Αίθριος
Ορατότητα: 8 χλμ
2017/06/26 06:19 1176 260619Z 00000KT 8000 SKC 25/19 Q1012
 
(Ι.Μ.Σ.)  Σέρρες  (Σταθμός:1390)
Σέρρες - Σέρρες - Κ. Μακεδονία
Γ.Πλάτ: 41.08 - Γ.Μήκ: 23.55 - Υψόμ: 34μ
Απόσταση από το Vouhead Weather: (ΒΑ) 75χλμ
Ενημερώθηκε: 26/06/2017 20:04
Καταιγίδα, Νεφοσκεπής
Καταιγίδα, Νεφοσκεπής
 Άνεμος από ΑΒΑ
Άνεμος: ΑΒΑ 6 χΑω
Θερμοκρασία: 29°C
Δείκτης Δυσφορίας: 29°C
Σημ. Δρόσου: 16°C
Υγρασία: 45%
Βαρόμετρο: 1010 hPa
Περίληψη: Καταιγίδα
Σύννεφα: Νεφοσκεπής
Ορατότητα: 10 χλμ
Ανάλυση νέφωσης: Νεφοσκεπής 1524μ
2017/06/26 17:04 1390 261704Z 06703KT 9999 TS OVC050 29/16 Q1010
(Ε.Α.Α.)  LG40 - Νάουσα  (Σταθμός:1043)
Νάουσα - Ημαθία - Κ. Μακεδονία
Γ.Πλάτ: 40.63 - Γ.Μήκ: 22.07 - Υψόμ: 365μ
Απόσταση από το Vouhead Weather: (ΔΒΔ) 77χλμ
Ενημερώθηκε: 26/06/2017 20:04
Νεφοσκεπής
Νεφοσκεπής
 Άνεμος από calm
Άνεμος: Απνοια
Θερμοκρασία: 27°C
Δείκτης Δυσφορίας: 28°C
Σημ. Δρόσου: 18°C
Υγρασία: 58%
Βαρόμετρο: 1010 hPa
Σύννεφα: Νεφοσκεπής
Ορατότητα: 9 χλμ
Ανάλυση νέφωσης: Νεφοσκεπής 1097μ
2017/06/26 17:04 1043 261704Z 00000KT 9000 OVC036 27/18 Q1010
 
(Ε.Α.Α.)  LG87 - Σέλι  (Σταθμός:1048)
(Χιονοδρομικό Κέντρο)
Βέροια - Ημαθία - Κ. Μακεδονία
Γ.Πλάτ: 40.54 - Γ.Μήκ: 22.01 - Υψόμ: 1510μ
Απόσταση από το Vouhead Weather: (Δ) 82χλμ
Ενημερώθηκε: 26/06/2017 20:04
Νεφοσκεπής
Νεφοσκεπής
 Άνεμος από ΝΝΔ
Άνεμος: ΝΝΔ 7 χΑω
Θερμοκρασία: 18°C
Σημ. Δρόσου: 13°C
Υγρασία: 73%
Βαρόμετρο: 1011 hPa
Σύννεφα: Νεφοσκεπής
Ορατότητα: 8 χλμ
Ανάλυση νέφωσης: Νεφοσκεπής 549μ
2017/06/26 17:04 1048 261704Z 20204KT 8000 OVC018 18/13 Q1011
(Ε.Α.Α.)  LGE8 - 3-5 Πηγάδια  (Σταθμός:1194)
(Χιονοδρομικό Κέντρο)
Νάουσα - Ημαθία - Κ. Μακεδονία
Γ.Πλάτ: 40.64 - Γ.Μήκ: 21.97 - Υψόμ: 1430μ
Απόσταση από το Vouhead Weather: (ΔΒΔ) 85χλμ
Ενημερώθηκε: 08/04/2017 20:04
ΜΗ ΠΡΟΣΦΑΤΟ METAR
Μερικώς νεφελώδης
Μερικώς νεφελώδης
 Άνεμος από ΒΒΑ
Άνεμος: ΒΒΑ 4 χΑω
Θερμοκρασία: 7°C
Σημ. Δρόσου: 2°C
Υγρασία: 71%
Βαρόμετρο: 1020 hPa
Σύννεφα: Μερικώς νεφελώδης
Ορατότητα: 9 χλμ
Ανάλυση νέφωσης: Μερικώς νεφελώδης 579μ
2017/04/08 17:04 1194 081704Z 02202KT 9000 SCT019 07/02 Q1020
 
(Ε.Α.Α.)  LGO1 - Αριδαία  (Σταθμός:1270)
Αλμωπία - Πέλλα - C. Macedonia
Γ.Πλάτ: 40.98 - Γ.Μήκ: 22.06 - Υψόμ: 120μ
Απόσταση από το Vouhead Weather: (ΔΒΔ) 89χλμ
Ενημερώθηκε: 23/05/2017 23:49
ΜΗ ΠΡΟΣΦΑΤΟ METAR
Καταιγίδα, Ασθενής βροχή, Νεφοσκεπής
Καταιγίδα, Ασθενής βροχή, Νεφοσκεπής
 Άνεμος από ΒΑ
Άνεμος: ΒΑ 2 χΑω
Θερμοκρασία: 18°C
Σημ. Δρόσου: 15°C
Υγρασία: 83%
Βαρόμετρο: 1016 hPa
Περίληψη: Καταιγίδα, Ασθενής βροχή
Σύννεφα: Νεφοσκεπής
Ορατότητα: 9 χλμ
Ανάλυση νέφωσης: Νεφοσκεπής 2438μ
2017/05/23 20:49 1270 232049Z 04501KT 9000 TS -RA OVC080 18/15 Q1016
(Ε.Α.Α.)  LG** - Λαϊλιάς  (Σταθμός:1359)
(Ορεινό Καταφυγιο)
Σέρρες - Σέρρες - Κ. Μακεδονία
Γ.Πλάτ: 41.26 - Γ.Μήκ: 23.59 - Υψόμ: 1515μ
Απόσταση από το Vouhead Weather: (ΒΑ) 93χλμ
Ενημερώθηκε: 26/06/2017 20:04
Καταιγίδα, Νεφοσκεπής
Καταιγίδα, Νεφοσκεπής
 Άνεμος από calm
Άνεμος: Απνοια
Θερμοκρασία: 18°C
Σημ. Δρόσου: 13°C
Υγρασία: 73%
Βαρόμετρο: 1010 hPa
Περίληψη: Καταιγίδα
Σύννεφα: Νεφοσκεπής
Ορατότητα: 8 χλμ
Ανάλυση νέφωσης: Νεφοσκεπής 610μ
2017/06/26 17:04 1359 261704Z 00000KT 8000 TS OVC020 18/13 Q1010
 
(Ι.Μ.Σ.)  Πρώτη  (Σταθμός:1273)
Αμφίπολη - Σέρρες - Κ. Μακεδονία
Γ.Πλάτ: 40.94 - Γ.Μήκ: 24.00 - Υψόμ: 325μ
Απόσταση από το Vouhead Weather: (ΑΒΑ) 96χλμ
Ενημερώθηκε: 26/06/2017 20:04
Καταιγίδα, Νεφοσκεπής
Καταιγίδα, Νεφοσκεπής
 Άνεμος από calm
Άνεμος: Απνοια
Θερμοκρασία: 29°C
Δείκτης Δυσφορίας: 29°C
Σημ. Δρόσου: 17°C
Υγρασία: 48%
Βαρόμετρο: 1009 hPa
Περίληψη: Καταιγίδα
Σύννεφα: Νεφοσκεπής
Ορατότητα: 10 χλμ
Ανάλυση νέφωσης: Νεφοσκεπής 1494μ
2017/06/26 17:04 1273 261704Z 00000KT 9999 TS OVC049 29/17 Q1009
(Ε.Α.Α.)  LG** - (ΔΕΗ) Νότιο Πεδίο  (Σταθμός:1347)
(ΔΕΗ: Δημόσια Επιχείρηση Ηλεκτρισμού)
Εορδαία - Κοζάνη - Δ. Μακεδονία
Γ.Πλάτ: 40.45 - Γ.Μήκ: 21.83 - Υψόμ: 765μ
Απόσταση από το Vouhead Weather: (ΔΝΔ) 98χλμ
Ενημερώθηκε: 26/06/2017 12:49
ΜΗ ΠΡΟΣΦΑΤΟ METAR
Μερικώς νεφελώδης
Μερικώς νεφελώδης
 Άνεμος από Α
Άνεμος: Α 2 χΑω
Θερμοκρασία: 28°C
Δείκτης Δυσφορίας: 28°C
Σημ. Δρόσου: 16°C
Υγρασία: 48%
Βαρόμετρο: 1009 hPa
Σύννεφα: Μερικώς νεφελώδης
Ορατότητα: 10 χλμ
Ανάλυση νέφωσης: Μερικώς νεφελώδης 1494μ
2017/06/26 09:49 1347 260949Z 09001KT 9999 SCT049 28/16 Q1009
 
(Ε.Α.Α.)  LG93 - Καϊμάκτσαλαν  (Σταθμός:1101)
(Χιονοδρομικό Κέντρο)
Έδεσσα - Πέλλα - Κ. Μακεδονία
Γ.Πλάτ: 40.94 - Γ.Μήκ: 21.80 - Υψόμ: 2090μ
Απόσταση από το Vouhead Weather: (ΔΒΔ) 107χλμ
Ενημερώθηκε: 23/06/2017 16:04
ΜΗ ΠΡΟΣΦΑΤΟ METAR
Αίθριος
Αίθριος
 Άνεμος από ΒΒΑ
Άνεμος: ΒΒΑ 4 χΑω
Θερμοκρασία: 18°C
Σημ. Δρόσου: 9°C
Υγρασία: 56%
Βαρόμετρο: 1018 hPa
Σύννεφα: Αίθριος
Ορατότητα: 10 χλμ
2017/06/23 13:04 1101 231304Z 02202KT 9999 SKC 18/09 Q1018
(Ε.Α.Α.)  LGC2 - Μονή Βατοπεδίου  (Σταθμός:1151)
Αγιον Όρος - Χαλκιδική - Κ. Μακεδονία
Γ.Πλάτ: 40.26 - Γ.Μήκ: 24.24 - Υψόμ: 25μ
Απόσταση από το Vouhead Weather: (ΑΝΑ) 108χλμ
Ενημερώθηκε: 26/06/2017 20:04
Μερικώς νεφελώδης
Μερικώς νεφελώδης
 Άνεμος από ΒΔ
Άνεμος: ΒΔ 4 χΑω
Θερμοκρασία: 31°C
Δείκτης Δυσφορίας: 32°C
Σημ. Δρόσου: 18°C
Υγρασία: 46%
Βαρόμετρο: 1008 hPa
Σύννεφα: Μερικώς νεφελώδης
Ορατότητα: 10 χλμ
Ανάλυση νέφωσης: Μερικώς νεφελώδης 1585μ
2017/06/26 17:04 1151 261704Z 31502KT 9999 SCT052 31/18 Q1008
 
(Ι.Μ.Σ.)  Παλαιοχώρι  (Σταθμός:1284)
Παγγαίο - Καβάλα - Α. Μακεδονία & Θράκη
Γ.Πλάτ: 40.95 - Γ.Μήκ: 24.18 - Υψόμ: 130μ
Απόσταση από το Vouhead Weather: (ΑΒΑ) 109χλμ
Ενημερώθηκε: 26/06/2017 20:04
Καταιγίδα, Νεφοσκεπής
Καταιγίδα, Νεφοσκεπής
 Άνεμος από calm
Άνεμος: Απνοια
Θερμοκρασία: 28°C
Δείκτης Δυσφορίας: 28°C
Σημ. Δρόσου: 16°C
Υγρασία: 48%
Βαρόμετρο: 1010 hPa
Περίληψη: Καταιγίδα
Σύννεφα: Νεφοσκεπής
Ορατότητα: 10 χλμ
Ανάλυση νέφωσης: Νεφοσκεπής 1524μ
2017/06/26 17:04 1284 261704Z 00000KT 9999 TS OVC050 28/16 Q1010
(Ε.Α.Α.)  LG26 - Πτολεμαΐδα  (Σταθμός:1046)
Εορδαία - Κοζάνη - Δ. Μακεδονία
Γ.Πλάτ: 40.51 - Γ.Μήκ: 21.68 - Υψόμ: 606μ
Απόσταση από το Vouhead Weather: (Δ) 110χλμ
Ενημερώθηκε: 26/06/2017 20:04
Νεφοσκεπής
Νεφοσκεπής
 Άνεμος από calm
Άνεμος: Απνοια
Θερμοκρασία: 26°C
Σημ. Δρόσου: 16°C
Υγρασία: 54%
Βαρόμετρο: 1008 hPa
Σύννεφα: Νεφοσκεπής
Ορατότητα: 10 χλμ
Ανάλυση νέφωσης: Νεφοσκεπής 1158μ
2017/06/26 17:04 1046 261704Z 00000KT 9999 OVC038 26/16 Q1008
 
(Ε.Α.Α.)  LGG9 - (ΔΕΗ) Αμύνταιο  (Σταθμός:1220)
(ΔΕΗ: Δημόσια Επιχείρηση Ηλεκτρισμού)
Αμύνταιο - Φλώρινα - Δ. Μακεδονία
Γ.Πλάτ: 40.61 - Γ.Μήκ: 21.66 - Υψόμ: 680μ
Απόσταση από το Vouhead Weather: (Δ) 112χλμ
Ενημερώθηκε: 26/06/2017 20:04
Νεφοσκεπής
Νεφοσκεπής
 Άνεμος από ΒΔ
Άνεμος: ΒΔ 4 χΑω
Θερμοκρασία: 25°C
Σημ. Δρόσου: 16°C
Υγρασία: 57%
Βαρόμετρο: 1008 hPa
Σύννεφα: Νεφοσκεπής
Ορατότητα: 10 χλμ
Ανάλυση νέφωσης: Νεφοσκεπής 1128μ
2017/06/26 17:04 1220 261704Z 31502KT 9999 OVC037 25/16 Q1008
(Ε.Α.Α.)  LG48 - Νευροκόπι  (Σταθμός:1044)
Κάτω Νευροκόπι - Δράμα - Α. Μακεδονία & Θράκη
Γ.Πλάτ: 41.34 - Γ.Μήκ: 23.87 - Υψόμ: 590μ
Απόσταση από το Vouhead Weather: (ΒΑ) 114χλμ
Ενημερώθηκε: 26/06/2017 20:04
Καταιγίδα, Νεφοσκεπής
Καταιγίδα, Νεφοσκεπής
 Άνεμος από calm
Άνεμος: Απνοια
Θερμοκρασία: 24°C
Σημ. Δρόσου: 16°C
Υγρασία: 61%
Βαρόμετρο: 1010 hPa
Περίληψη: Καταιγίδα
Σύννεφα: Νεφοσκεπής
Ορατότητα: 10 χλμ
Ανάλυση νέφωσης: Νεφοσκεπής 1036μ
2017/06/26 17:04 1044 261704Z 00000KT 9999 TS OVC034 24/16 Q1010
 
(Ε.Α.Α.)  LGL6 - Λάρισσα  (Σταθμός:1331)
Λάρισσα - Λάρισσα - Θεσσαλία
Γ.Πλάτ: 39.63 - Γ.Μήκ: 22.40 - Υψόμ: 82μ
Απόσταση από το Vouhead Weather: (ΝΝΔ) 115χλμ
Ενημερώθηκε: 26/06/2017 20:04
Μερικώς νεφελώδης
Μερικώς νεφελώδης
 Άνεμος από calm
Άνεμος: Απνοια
Θερμοκρασία: 31°C
Δείκτης Δυσφορίας: 33°C
Σημ. Δρόσου: 19°C
Υγρασία: 49%
Βαρόμετρο: 1008 hPa
Σύννεφα: Μερικώς νεφελώδης
Ορατότητα: 10 χλμ
Ανάλυση νέφωσης: Μερικώς νεφελώδης 1554μ
2017/06/26 17:04 1331 261704Z 00000KT 9999 SCT051 31/19 Q1008
(Ι.Μ.Σ.)  Δράμα  (Σταθμός:1212)
Δράμα - Δράμα - Α. Μακεδονία & Θράκη
Γ.Πλάτ: 41.16 - Γ.Μήκ: 24.10 - Υψόμ: 115μ
Απόσταση από το Vouhead Weather: (ΑΒΑ) 117χλμ
Ενημερώθηκε: 26/06/2017 20:04
Καταιγίδα, Νεφοσκεπής
Καταιγίδα, Νεφοσκεπής
 Άνεμος από Β
Άνεμος: Β 4 χΑω
Θερμοκρασία: 28°C
Δείκτης Δυσφορίας: 28°C
Σημ. Δρόσου: 17°C
Υγρασία: 51%
Βαρόμετρο: 1010 hPa
Περίληψη: Καταιγίδα
Σύννεφα: Νεφοσκεπής
Ορατότητα: 10 χλμ
Ανάλυση νέφωσης: Νεφοσκεπής 1311μ
2017/06/26 17:04 1212 261704Z 36002KT 9999 TS OVC043 28/17 Q1010
 
(Ι.Μ.Σ.)  Φαλακρό Όρος  (Σταθμός:1295)
(Χιονοδρομικό Κέντρο)
Προσοτσάνη - Δράμα - Α. Μακεδονία & Θράκη
Γ.Πλάτ: 41.31 - Γ.Μήκ: 24.07 - Υψόμ: 1731μ
Απόσταση από το Vouhead Weather: (ΒΑ) 123χλμ
Ενημερώθηκε: 02/04/2017 16:04
ΜΗ ΠΡΟΣΦΑΤΟ METAR
Διάσπαρτα νέφη
Διάσπαρτα νέφη
 Άνεμος από ΝΝΔ
Άνεμος: ΝΝΔ 17 χΑω
Θερμοκρασία: 7°C
Ψυχρότητα Ανέμου: 4°C
Σημ. Δρόσου: 3°C
Υγρασία: 76%
Βαρόμετρο: 1023 hPa
Σύννεφα: Διάσπαρτα νέφη
Ορατότητα: 9 χλμ
Ανάλυση νέφωσης: Διάσπαρτα νέφη 549μ
2017/04/02 13:04 1295 021304Z 20209KT 9000 FEW018 07/03 Q1023
(Ι.Μ.Σ.)  Φαλακρό Όρος  (Σταθμός:1364)
(Κορυφή Καρτάλκα)
Προσοτσάνη - Δράμα - Α. Μακεδονία & Θράκη
Γ.Πλάτ: 41.30 - Γ.Μήκ: 24.08 - Υψόμ: 2111μ
Απόσταση από το Vouhead Weather: (ΒΑ) 123χλμ
Ενημερώθηκε: 13/03/2014 21:52
ΜΗ ΠΡΟΣΦΑΤΟ METAR
Αίθριος
Αίθριος
 Άνεμος από Β
Άνεμος: Β 22 χΑω
Θερμοκρασία: 28°C
Δείκτης Δυσφορίας: 28°C
Σημ. Δρόσου: 16°C
Υγρασία: 48%
Βαρόμετρο: 999 hPa
Σύννεφα: Αίθριος
Ορατότητα: 10 χλμ
2014/03/13 19:52 1364 131952Z 36012KT 9999 SKC 28/16 Q0999
 
(Ε.Α.Α.)  LGG3 - Ζαγορά  (Σταθμός:1014)
Ζαγορά Μουρέσι - Μαγνησία - Θεσσαλία
Γ.Πλάτ: 39.45 - Γ.Μήκ: 23.10 - Υψόμ: 505μ
Απόσταση από το Vouhead Weather: (Ν) 124χλμ
Ενημερώθηκε: 26/06/2017 20:03
Νεφοσκεπής
Νεφοσκεπής
 Άνεμος από Δ
Άνεμος: Δ 2 χΑω
Θερμοκρασία: 27°C
Δείκτης Δυσφορίας: 29°C
Σημ. Δρόσου: 20°C
Υγρασία: 66%
Βαρόμετρο: 1010 hPa
Σύννεφα: Νεφοσκεπής
Ορατότητα: 9 χλμ
Ανάλυση νέφωσης: Νεφοσκεπής 884μ
2017/06/26 17:03 1014 261703Z 27001KT 9000 OVC029 27/20 Q1010
(Ε.Α.Α.)  LGF0 - Βαρικό  (Σταθμός:1252)
Αμύνταιο - Φλώρινα - Δ. Μακεδονία
Γ.Πλάτ: 40.54 - Γ.Μήκ: 21.50 - Υψόμ: 780μ
Απόσταση από το Vouhead Weather: (Δ) 125χλμ
Ενημερώθηκε: 26/06/2017 20:04
Νεφοσκεπής
Νεφοσκεπής
 Άνεμος από ΝΔ
Άνεμος: ΝΔ 2 χΑω
Θερμοκρασία: 25°C
Σημ. Δρόσου: 17°C
Υγρασία: 61%
Βαρόμετρο: 1010 hPa
Σύννεφα: Νεφοσκεπής
Ορατότητα: 9 χλμ
Ανάλυση νέφωσης: Νεφοσκεπής 1006μ
2017/06/26 17:04 1252 261704Z 22501KT 9000 OVC033 25/17 Q1010
 
(Ι.Μ.Σ.)  Καβάλα  (Σταθμός:1041)
Καβάλα - Καβάλα - Α. Μακεδονία & Θράκη
Γ.Πλάτ: 40.94 - Γ.Μήκ: 24.40 - Υψόμ: 90μ
Απόσταση από το Vouhead Weather: (ΑΒΑ) 127χλμ
Ενημερώθηκε: 26/06/2017 20:04
Καταιγίδα, Νεφοσκεπής
Καταιγίδα, Νεφοσκεπής
 Άνεμος από calm
Άνεμος: Απνοια
Θερμοκρασία: 28°C
Δείκτης Δυσφορίας: 29°C
Σημ. Δρόσου: 18°C
Υγρασία: 55%
Βαρόμετρο: 1011 hPa
Περίληψη: Καταιγίδα
Σύννεφα: Νεφοσκεπής
Ορατότητα: 10 χλμ
Ανάλυση νέφωσης: Νεφοσκεπής 1189μ
2017/06/26 17:04 1041 261704Z 00000KT 9999 TS OVC039 28/18 Q1011
(Ε.Α.Α.)  LG** - Κλεισούρα  (Σταθμός:1360)
Καστοριά - Καστοριά - Δ. Μακεδονία
Γ.Πλάτ: 40.54 - Γ.Μήκ: 21.47 - Υψόμ: 1160μ
Απόσταση από το Vouhead Weather: (Δ) 128χλμ
Ενημερώθηκε: 25/10/2015 05:35
ΜΗ ΠΡΟΣΦΑΤΟ METAR
Αίθριος
Αίθριος
 Άνεμος από calm
Άνεμος: Απνοια
Θερμοκρασία: 2°C
Σημ. Δρόσου: 1°C
Υγρασία: 93%
Βαρόμετρο: 1023 hPa
Σύννεφα: Αίθριος
Ορατότητα: 6 χλμ
2015/10/25 03:35 1360 250335Z 00000KT 6000 SKC 02/01 Q1023
 
(Ι.Μ.Σ.)  Χάνια  (Σταθμός:1188)
Βόλος - Μαγνησία - Θεσσαλία
Γ.Πλάτ: 39.39 - Γ.Μήκ: 23.06 - Υψόμ: 1180μ
Απόσταση από το Vouhead Weather: (Ν) 130χλμ
Ενημερώθηκε: 07/03/2014 20:05
ΜΗ ΠΡΟΣΦΑΤΟ METAR
Νεφοσκεπής
Νεφοσκεπής
 Άνεμος από calm
Άνεμος: Απνοια
Θερμοκρασία: 13°C
Σημ. Δρόσου: 9°C
Υγρασία: 77%
Βαρόμετρο: 1015 hPa
Σύννεφα: Νεφοσκεπής
Ορατότητα: 7 χλμ
Ανάλυση νέφωσης: Νεφοσκεπής 366μ
2014/03/07 18:05 1188 071805Z 00000KT 7000 OVC012 13/09 Q1015
(Ι.Μ.Σ.)  Πορταριά  (Σταθμός:1097)
Βόλος - Μαγνησία - Θεσσαλία
Γ.Πλάτ: 39.39 - Γ.Μήκ: 23.00 - Υψόμ: 678μ
Απόσταση από το Vouhead Weather: (Ν) 130χλμ
Ενημερώθηκε: 26/06/2017 20:04
Νεφοσκεπής
Νεφοσκεπής
 Άνεμος από calm
Άνεμος: Απνοια
Θερμοκρασία: 27°C
Δείκτης Δυσφορίας: 28°C
Σημ. Δρόσου: 18°C
Υγρασία: 58%
Βαρόμετρο: 1006 hPa
Σύννεφα: Νεφοσκεπής
Ορατότητα: 9 χλμ
Ανάλυση νέφωσης: Νεφοσκεπής 1067μ
2017/06/26 17:04 1097 261704Z 00000KT 9000 OVC035 27/18 Q1006
 
(Ι.Μ.Σ.)  Βουνοχώρι  (Σταθμός:1235)
Καβάλα - Καβάλα - Α. Μακεδονία & Θράκη
Γ.Πλάτ: 41.07 - Γ.Μήκ: 24.37 - Υψόμ: 830μ
Απόσταση από το Vouhead Weather: (ΑΒΑ) 130χλμ
Ενημερώθηκε: 26/06/2017 20:04
Νεφοσκεπής
Νεφοσκεπής
 Άνεμος από ΝΑ
Άνεμος: ΝΑ 2 χΑω
Θερμοκρασία: 22°C
Σημ. Δρόσου: 16°C
Υγρασία: 69%
Βαρόμετρο: 1011 hPa
Σύννεφα: Νεφοσκεπής
Ορατότητα: 8 χλμ
Ανάλυση νέφωσης: Νεφοσκεπής 701μ
2017/06/26 17:04 1235 261704Z 13501KT 8000 OVC023 22/16 Q1011
(Ε.Α.Α.)  LG51 - Βόλος  (Σταθμός:1010)
Βόλος - Μαγνησία - Θεσσαλία
Γ.Πλάτ: 39.37 - Γ.Μήκ: 22.96 - Υψόμ: 52μ
Απόσταση από το Vouhead Weather: (Ν) 132χλμ
Ενημερώθηκε: 26/06/2017 20:03
Νεφοσκεπής
Νεφοσκεπής
 Άνεμος από ΝΑ
Άνεμος: ΝΑ 4 χΑω
Θερμοκρασία: 31°C
Δείκτης Δυσφορίας: 32°C
Σημ. Δρόσου: 18°C
Υγρασία: 46%
Βαρόμετρο: 1008 hPa
Σύννεφα: Νεφοσκεπής
Ορατότητα: 10 χλμ
Ανάλυση νέφωσης: Νεφοσκεπής 1554μ
2017/06/26 17:03 1010 261703Z 13502KT 9999 OVC051 31/18 Q1008
 
(Ι.Μ.Σ.)  Βόλος(Κέντρο)  (Σταθμός:1318)
Βόλος - Μαγνησία - Θεσσαλία
Γ.Πλάτ: 39.36 - Γ.Μήκ: 22.95 - Υψόμ: 15μ
Απόσταση από το Vouhead Weather: (Ν) 133χλμ
Ενημερώθηκε: 15/01/2017 10:49
ΜΗ ΠΡΟΣΦΑΤΟ METAR
Αίθριος
Αίθριος
 Άνεμος από ΒΒΔ
Άνεμος: ΒΒΔ 2 χΑω
Θερμοκρασία: 6°C
Σημ. Δρόσου: 3°C
Υγρασία: 81%
Βαρόμετρο: 1015 hPa
Σύννεφα: Αίθριος
Ορατότητα: 8 χλμ
2017/01/15 08:49 1318 150849Z 33701KT 8000 SKC 06/03 Q1015
(Ε.Α.Α.)  LG63 - Φλώρινα  (Σταθμός:1049)
Φλώρινα - Φλώρινα - Δ. Μακεδονία
Γ.Πλάτ: 40.78 - Γ.Μήκ: 21.41 - Υψόμ: 637μ
Απόσταση από το Vouhead Weather: (ΔΒΔ) 134χλμ
Ενημερώθηκε: 26/06/2017 20:04
Μερικώς νεφελώδης
Μερικώς νεφελώδης
 Άνεμος από ΝΝΑ
Άνεμος: ΝΝΑ 4 χΑω
Θερμοκρασία: 23°C
Σημ. Δρόσου: 16°C
Υγρασία: 65%
Βαρόμετρο: 1009 hPa
Σύννεφα: Μερικώς νεφελώδης
Ορατότητα: 9 χλμ
Ανάλυση νέφωσης: Μερικώς νεφελώδης 823μ
2017/06/26 17:04 1049 261704Z 15702KT 9000 SCT027 23/16 Q1009
 
(Ε.Α.Α.)  LGF2 - Γρεβενά  (Σταθμός:1198)
(1ο Επαγγελματικό Λύκειο Γρεβενών)
Γρεβενά - Γρεβενά - Δ. Μακεδονία
Γ.Πλάτ: 40.08 - Γ.Μήκ: 21.43 - Υψόμ: 510μ
Απόσταση από το Vouhead Weather: (ΔΝΔ) 142χλμ
Ενημερώθηκε: 26/06/2017 20:04
Νεφοσκεπής
Νεφοσκεπής
 Άνεμος από calm
Άνεμος: Απνοια
Θερμοκρασία: 27°C
Δείκτης Δυσφορίας: 28°C
Σημ. Δρόσου: 19°C
Υγρασία: 62%
Βαρόμετρο: 1009 hPa
Σύννεφα: Νεφοσκεπής
Ορατότητα: 9 χλμ
Ανάλυση νέφωσης: Νεφοσκεπής 914μ
2017/06/26 17:04 1198 261704Z 00000KT 9000 OVC030 27/19 Q1009
(Ε.Α.Α.)  LGC0 - Καστοριά  (Σταθμός:1162)
Καστοριά - Καστοριά - Δ. Μακεδονία
Γ.Πλάτ: 40.50 - Γ.Μήκ: 21.32 - Υψόμ: 623μ
Απόσταση από το Vouhead Weather: (Δ) 144χλμ
Ενημερώθηκε: 19/06/2017 10:49
ΜΗ ΠΡΟΣΦΑΤΟ METAR
Μερικώς νεφελώδης
Μερικώς νεφελώδης
 Άνεμος από ΑΒΑ
Άνεμος: ΑΒΑ 7 χΑω
Θερμοκρασία: 18°C
Σημ. Δρόσου: 10°C
Υγρασία: 60%
Βαρόμετρο: 1014 hPa
Σύννεφα: Μερικώς νεφελώδης
Ορατότητα: 10 χλμ
Ανάλυση νέφωσης: Μερικώς νεφελώδης 945μ
2017/06/19 07:49 1162 190749Z 06704KT 9999 SCT031 18/10 Q1014
 
(Ι.Μ.Σ.)  Καλαμπάκα  (Σταθμός:1012)
Καλαμπάκα - Τρίκαλα - Θεσσαλία
Γ.Πλάτ: 39.71 - Γ.Μήκ: 21.62 - Υψόμ: 215μ
Απόσταση από το Vouhead Weather: (ΔΝΔ) 149χλμ
Ενημερώθηκε: 26/06/2017 20:03
Νεφοσκεπής
Νεφοσκεπής
 Άνεμος από ΔΝΔ
Άνεμος: ΔΝΔ 2 χΑω
Θερμοκρασία: 31°C
Σημ. Δρόσου: 13°C
Υγρασία: 33%
Βαρόμετρο: 1008 hPa
Σύννεφα: Νεφοσκεπής
Ορατότητα: 10 χλμ
Ανάλυση νέφωσης: Νεφοσκεπής 2073μ
2017/06/26 17:03 1012 261703Z 24701KT 9999 OVC068 31/13 Q1008
(Ι.Μ.Σ.)  Καρδίτσα  (Σταθμός:1118)
Καρδίτσα - Καρδίτσα - Θεσσαλία
Γ.Πλάτ: 39.37 - Γ.Μήκ: 21.92 - Υψόμ: 100μ
Απόσταση από το Vouhead Weather: (ΝΝΔ) 160χλμ
Ενημερώθηκε: 08/02/2016 23:34
ΜΗ ΠΡΟΣΦΑΤΟ METAR
Αίθριος
Αίθριος
 Άνεμος από ΝΔ
Άνεμος: ΝΔ 2 χΑω
Θερμοκρασία: 7°C
Σημ. Δρόσου: 2°C
Υγρασία: 71%
Βαρόμετρο: 1027 hPa
Σύννεφα: Αίθριος
Ορατότητα: 10 χλμ
2016/02/08 21:34 1118 082134Z 22501KT 9999 SKC 07/02 Q1027
 
(Ι.Μ.Σ.)  Σκιάθος  (Σταθμός:1201)
(Ερασιτεχνικό Αστεροσκοπείο NUNKI)
Σκιάθος - Σποράδες - Θεσσαλία
Γ.Πλάτ: 39.18 - Γ.Μήκ: 23.51 - Υψόμ: 35μ
Απόσταση από το Vouhead Weather: (ΝΝΑ) 161χλμ
Ενημερώθηκε: 26/06/2017 20:04
Νεφοσκεπής
Νεφοσκεπής
 Άνεμος από ΝΔ
Άνεμος: ΝΔ 9 χΑω
Θερμοκρασία: 27°C
Δείκτης Δυσφορίας: 28°C
Σημ. Δρόσου: 19°C
Υγρασία: 62%
Βαρόμετρο: 1010 hPa
Σύννεφα: Νεφοσκεπής
Ορατότητα: 9 χλμ
Ανάλυση νέφωσης: Νεφοσκεπής 914μ
2017/06/26 17:04 1201 261704Z 22505KT 9000 OVC030 27/19 Q1010
(Ι.Μ.Σ.)  Πτελεός  (Σταθμός:1016)
Αλμυρός - Μαγνησία - Θεσσαλία
Γ.Πλάτ: 39.05 - Γ.Μήκ: 22.95 - Υψόμ: 125μ
Απόσταση από το Vouhead Weather: (Ν) 168χλμ
Ενημερώθηκε: 26/06/2017 20:03
Αίθριος
Αίθριος
 Άνεμος από ΒΔ
Άνεμος: ΒΔ 7 χΑω
Θερμοκρασία: 30°C
Δείκτης Δυσφορίας: 30°C
Σημ. Δρόσου: 16°C
Υγρασία: 43%
Βαρόμετρο: 1008 hPa
Σύννεφα: Αίθριος
Ορατότητα: 10 χλμ
2017/06/26 17:03 1016 261703Z 31504KT 9999 SKC 30/16 Q1008
 
(Ε.Α.Α.)  LG82 - Βασιλίτσα  (Σταθμός:1005)
(Χιονοδρομικό Κέντρο)
Γρεβενά - Γρεβενά - Δ. Μακεδονία
Γ.Πλάτ: 40.04 - Γ.Μήκ: 21.08 - Υψόμ: 1780μ
Απόσταση από το Vouhead Weather: (ΔΝΔ) 171χλμ
Ενημερώθηκε: 27/05/2017 01:33
ΜΗ ΠΡΟΣΦΑΤΟ METAR
Διάσπαρτα νέφη
Διάσπαρτα νέφη
 Άνεμος από ΒΑ
Άνεμος: ΒΑ 6 χΑω
Θερμοκρασία: 5°C
Σημ. Δρόσου: 5°C
Υγρασία: 100%
Βαρόμετρο: 1015 hPa
Σύννεφα: Διάσπαρτα νέφη
Ορατότητα: 5 χλμ
Ανάλυση νέφωσης: Διάσπαρτα νέφη 610μ
2017/05/26 22:33 1005 262233Z 04503KT 5000 FEW020 05/05 Q1015
(Ε.Α.Α.)  LGE2 - Περτούλι  (Σταθμός:1179)
Πύλη - Τρίκαλα - Θεσσαλία
Γ.Πλάτ: 39.54 - Γ.Μήκ: 21.46 - Υψόμ: 1170μ
Απόσταση από το Vouhead Weather: (ΝΔ) 172χλμ
Ενημερώθηκε: 26/06/2017 20:04
Ομίχλη
Ομίχλη
 Άνεμος από calm
Άνεμος: Απνοια
Θερμοκρασία: 17°C
Σημ. Δρόσου: 16°C
Υγρασία: 94%
Βαρόμετρο: 1010 hPa
Περίληψη: Ομίχλη
Ορατότητα: 5 χλμ
2017/06/26 17:04 1179 261704Z 00000KT 5000 FG 17/16 Q1010
 
(Ε.Α.Α.)  LG80 - Σκόπελος  (Σταθμός:1018)
Σκόπελος - Σποράδες - Θεσσαλία
Γ.Πλάτ: 39.12 - Γ.Μήκ: 23.73 - Υψόμ: 60μ
Απόσταση από το Vouhead Weather: (ΝΝΑ) 173χλμ
Ενημερώθηκε: 26/06/2017 20:03
Μερικώς νεφελώδης
Μερικώς νεφελώδης
 Άνεμος από Ν
Άνεμος: Ν 4 χΑω
Θερμοκρασία: 28°C
Δείκτης Δυσφορίας: 30°C
Σημ. Δρόσου: 21°C
Υγρασία: 66%
Βαρόμετρο: 1013 hPa
Σύννεφα: Μερικώς νεφελώδης
Ορατότητα: 8 χλμ
Ανάλυση νέφωσης: Μερικώς νεφελώδης 792μ
2017/06/26 17:03 1018 261703Z 18002KT 8000 SCT026 28/21 Q1013
(Ε.Α.Α.)  LGC6 - Ξάνθη  (Σταθμός:1156)
(Μονάδα Βιολογικού Καθαρισμού)
Ξάνθη - Ξάνθη - Α. Μακεδονία & Θράκη
Γ.Πλάτ: 41.09 - Γ.Μήκ: 24.88 - Υψόμ: 40μ
Απόσταση από το Vouhead Weather: (ΑΒΑ) 171χλμ
Ενημερώθηκε: 26/06/2017 20:04
Νεφοσκεπής
Νεφοσκεπής
 Άνεμος από calm
Άνεμος: Απνοια
Θερμοκρασία: 29°C
Δείκτης Δυσφορίας: 29°C
Σημ. Δρόσου: 17°C
Υγρασία: 48%
Βαρόμετρο: 1010 hPa
Σύννεφα: Νεφοσκεπής
Ορατότητα: 10 χλμ
Ανάλυση νέφωσης: Νεφοσκεπής 1433μ
2017/06/26 17:04 1156 261704Z 00000KT 9999 OVC047 29/17 Q1010
 
(S.R.F.)  Σαμαρίνα  (Σταθμός:1205)
Γρεβενά - Γρεβενά - Δ. Μακεδονία
Γ.Πλάτ: 40.10 - Γ.Μήκ: 21.02 - Υψόμ: 1430μ
Απόσταση από το Vouhead Weather: (ΔΝΔ) 174χλμ
Ενημερώθηκε: 15/06/2017 04:04
ΜΗ ΠΡΟΣΦΑΤΟ METAR
Αίθριος
Αίθριος
 Άνεμος από calm
Άνεμος: Απνοια
Θερμοκρασία: 14°C
Σημ. Δρόσου: 11°C
Υγρασία: 82%
Βαρόμετρο: 761 hPa
Σύννεφα: Αίθριος
Ορατότητα: 7 χλμ
2017/06/15 01:04 1205 150104Z 00000KT 7000 SKC 14/11 Q0761
(Ε.Α.Α.)  LGN2 - Αλόννησος  (Σταθμός:1345)
Αλόννησος - Σποράδες - Θεσσαλία
Γ.Πλάτ: 39.15 - Γ.Μήκ: 23.87 - Υψόμ: 50μ
Απόσταση από το Vouhead Weather: (ΝΝΑ) 175χλμ
Ενημερώθηκε: 26/06/2017 20:04
Διάσπαρτα νέφη
Διάσπαρτα νέφη
 Άνεμος από Α
Άνεμος: Α 4 χΑω
Θερμοκρασία: 27°C
Δείκτης Δυσφορίας: 29°C
Σημ. Δρόσου: 20°C
Υγρασία: 66%
Βαρόμετρο: 1011 hPa
Σύννεφα: Διάσπαρτα νέφη
Ορατότητα: 9 χλμ
Ανάλυση νέφωσης: Διάσπαρτα νέφη 853μ
2017/06/26 17:04 1345 261704Z 09002KT 9000 FEW028 27/20 Q1011
 
(Ε.Α.Α.)  LGL7 - Καστανιά  (Σταθμός:1329)
(Λίμνη Πλαστήρα)
Καρδίτσα - Καρδίτσα - Θεσσαλία
Γ.Πλάτ: 39.24 - Γ.Μήκ: 21.79 - Υψόμ: 867μ
Απόσταση από το Vouhead Weather: (ΝΝΔ) 178χλμ
Ενημερώθηκε: 26/06/2017 14:04
ΜΗ ΠΡΟΣΦΑΤΟ METAR
Καταιγίδα, Μερικώς νεφελώδης
Καταιγίδα, Μερικώς νεφελώδης
 Άνεμος από ΒΑ
Άνεμος: ΒΑ 6 χΑω
Θερμοκρασία: 25°C
Σημ. Δρόσου: 18°C
Υγρασία: 65%
Βαρόμετρο: 1007 hPa
Περίληψη: Καταιγίδα
Σύννεφα: Μερικώς νεφελώδης
Ορατότητα: 9 χλμ
Ανάλυση νέφωσης: Μερικώς νεφελώδης 884μ
2017/06/26 11:04 1329 261104Z 04503KT 9000 TS SCT029 25/18 Q1007
(Ε.Α.Α.)  LGL8 - Γράμος  (Σταθμός:1320)
(Ορεινό Καταφυγιο)
Νεστόριο - Καστοριά - Δ. Μακεδονία
Γ.Πλάτ: 40.39 - Γ.Μήκ: 20.84 - Υψόμ: 1385μ
Απόσταση από το Vouhead Weather: (ΔΝΔ) 182χλμ
Ενημερώθηκε: 26/06/2017 20:04
Νεφοσκεπής
Νεφοσκεπής
 Άνεμος από ΔΝΔ
Άνεμος: ΔΝΔ 2 χΑω
Θερμοκρασία: 20°C
Σημ. Δρόσου: 16°C
Υγρασία: 78%
Βαρόμετρο: 1010 hPa
Σύννεφα: Νεφοσκεπής
Ορατότητα: 8 χλμ
Ανάλυση νέφωσης: Νεφοσκεπής 488μ
2017/06/26 17:04 1320 261704Z 24701KT 8000 OVC016 20/16 Q1010
 
(Ε.Α.Α.)  LGC1 - Σαμοθράκη  (Σταθμός:1174)
Σαμοθράκη - Έβρος - Α. Μακεδονία & Θράκη
Γ.Πλάτ: 40.47 - Γ.Μήκ: 25.48 - Υψόμ: 115μ
Απόσταση από το Vouhead Weather: (Α) 211χλμ
Ενημερώθηκε: 26/06/2017 20:04
Μερικώς νεφελώδης
Μερικώς νεφελώδης
 Άνεμος από ΔΒΔ
Άνεμος: ΔΒΔ 2 χΑω
Θερμοκρασία: 27°C
Δείκτης Δυσφορίας: 28°C
Σημ. Δρόσου: 18°C
Υγρασία: 58%
Βαρόμετρο: 997 hPa
Σύννεφα: Μερικώς νεφελώδης
Ορατότητα: 9 χλμ
Ανάλυση νέφωσης: Μερικώς νεφελώδης 1097μ
2017/06/26 17:04 1150 261704Z 29201KT 9000 SCT036 27/18 Q0997
(Ι.Μ.Σ.)  Κομοτηνή  (Σταθμός:1130)
Κομοτηνή - Ροδόπη - Α. Μακεδονία & Θράκη
Γ.Πλάτ: 41.11 - Γ.Μήκ: 25.40 - Υψόμ: 40μ
Απόσταση από το Vouhead Weather: (ΑΒΑ) 213χλμ
Ενημερώθηκε: 26/06/2017 20:04
Νεφοσκεπής
Νεφοσκεπής
 Άνεμος από ΝΔ
Άνεμος: ΝΔ 4 χΑω
Θερμοκρασία: 28°C
Δείκτης Δυσφορίας: 28°C
Σημ. Δρόσου: 17°C
Υγρασία: 51%
Βαρόμετρο: 1010 hPa
Σύννεφα: Νεφοσκεπής
Ορατότητα: 10 χλμ
Ανάλυση νέφωσης: Νεφοσκεπής 1341μ
2017/06/26 17:04 1130 261704Z 22502KT 9999 OVC044 28/17 Q1010
 
(Ε.Α.Α.)  LGD8 - Αλεξανδρούπολη  (Σταθμός:1174)
Αλεξανδρούπολη - Έβρος - Α. Μακεδονία & Θράκη
Γ.Πλάτ: 40.86 - Γ.Μήκ: 25.87 - Υψόμ: 48μ
Απόσταση από το Vouhead Weather: (ΑΒΑ) 247χλμ
Ενημερώθηκε: 26/06/2017 20:04
Μερικώς νεφελώδης
Μερικώς νεφελώδης
 Άνεμος από Ν
Άνεμος: Ν 4 χΑω
Θερμοκρασία: 28°C
Δείκτης Δυσφορίας: 29°C
Σημ. Δρόσου: 19°C
Υγρασία: 58%
Βαρόμετρο: 1009 hPa
Σύννεφα: Μερικώς νεφελώδης
Ορατότητα: 9 χλμ
Ανάλυση νέφωσης: Μερικώς νεφελώδης 1097μ
2017/06/26 17:04 1174 261704Z 18002KT 9000 SCT036 28/19 Q1009
(Ε.Α.Α.)  LGL2 - Μεταξάδες  (Σταθμός:1325)
Διδυμότειχο - Έβρος - Α. Μακεδονία & Θράκη
Γ.Πλάτ: 41.42 - Γ.Μήκ: 26.22 - Υψόμ: 162μ
Απόσταση από το Vouhead Weather: (ΑΒΑ) 289χλμ
Ενημερώθηκε: 26/06/2017 20:04
Διάσπαρτα νέφη
Διάσπαρτα νέφη
 Άνεμος από ΝΝΔ
Άνεμος: ΝΝΔ 2 χΑω
Θερμοκρασία: 31°C
Δείκτης Δυσφορίας: 32°C
Σημ. Δρόσου: 18°C
Υγρασία: 46%
Βαρόμετρο: 1009 hPa
Σύννεφα: Διάσπαρτα νέφη
Ορατότητα: 10 χλμ
Ανάλυση νέφωσης: Διάσπαρτα νέφη 1554μ
2017/06/26 17:04 1325 261704Z 20201KT 9999 FEW051 31/18 Q1009
 
(Ι.Μ.Σ.)  Διδυμότειχο  (Σταθμός:1202)
Διδυμότειχο - Έβρος - Α. Μακεδονία & Θράκη
Γ.Πλάτ: 41.35 - Γ.Μήκ: 26.50 - Υψόμ: 52μ
Απόσταση από το Vouhead Weather: (ΑΒΑ) 309χλμ
Ενημερώθηκε: 26/06/2017 20:04
Διάσπαρτα νέφη
Διάσπαρτα νέφη
 Άνεμος από Α
Άνεμος: Α 4 χΑω
Θερμοκρασία: 31°C
Σημ. Δρόσου: 14°C
Υγρασία: 35%
Βαρόμετρο: 1013 hPa
Σύννεφα: Διάσπαρτα νέφη
Ορατότητα: 10 χλμ
Ανάλυση νέφωσης: Διάσπαρτα νέφη 2042μ
2017/06/26 17:04 1202 261704Z 09002KT 9999 FEW067 31/14 Q1013
(Ε.Α.Α.)  LG31 - Ορεστιάδα  (Σταθμός:1020)
Ορεστιάδα - Έβρος - Α. Μακεδονία & Θράκη
Γ.Πλάτ: 41.51 - Γ.Μήκ: 26.53 - Υψόμ: 22μ
Απόσταση από το Vouhead Weather: (ΑΒΑ) 316χλμ
Ενημερώθηκε: 26/06/2017 20:04
Διάσπαρτα νέφη
Διάσπαρτα νέφη
 Άνεμος από ΝΑ
Άνεμος: ΝΑ 6 χΑω
Θερμοκρασία: 30°C
Δείκτης Δυσφορίας: 30°C
Σημ. Δρόσου: 16°C
Υγρασία: 43%
Βαρόμετρο: 1008 hPa
Σύννεφα: Διάσπαρτα νέφη
Ορατότητα: 10 χλμ
Ανάλυση νέφωσης: Διάσπαρτα νέφη 1737μ
2017/06/26 17:04 1020 261704Z 13503KT 9999 FEW057 30/16 Q1008
Πηγή Αναφορών METAR:  www.metar.gr
   Μην χρησιμοποιήσετε τα στοιχεία για αποφάσεις που αφορούν ζωές και πάσης φύσεως ιδιοκτησίες  
ΠΗΓΑΙΝΕΤΕ ΣΤΗΝ ΙΟΝΙΑ ΠΗΓΑΙΝΕΤΕ ΣΤΗΝ ΡΕΑ ΠΗΓΑΙΝΕΤΕ ΣΤΗΝ ΚΗΦΙΣΙΑ ΠΗΓΑΙΝΕΤΕ ΣΤΗΝ ΣΥΡΟ ΠΗΓΑΙΝΕΤΕ ΣΤΗΝ ΔΕΞΑΜΕΝΗ (BOLTEK) ΠΗΓΑΙΝΕΤΕ ΣΤΗΝ ΔΕΞΑΜΕΝΗ (LR) Γενική Γραμματεία Πολιτικής Προστασίας Ενιαίος Ευρωπαϊκός Αριθμός Έκτακτης Ανάγκης Βίντεο για το Καστελλόριζο(Μεγίστη) από τα αρχεία της ΕΡΤ Ιστοσελίδα Δήμου Μεγίστης Δείτε το μεγαλύτερο